Time;durP1;ratioP1;P1;durP2;ratioP2;P2;SDS_P1;SDS_P2;PMS_P1;PMS_P2;Temp;Humidity;BMP_temperature;BMP_pressure;BME280_temperature;BME280_humidity;BME280_pressure;Samples;Min_cycle;Max_cycle;Signal;HPM_P1;HPM_P2
2023/06/15 00:01:02;;;;;;;2.93;2.60;;;17.20;63.80;;;;;;5204732;28;20525;-45
2023/06/15 00:03:33;;;;;;;4.90;2.60;;;17.10;64.00;;;;;;5206641;28;20179;-44
2023/06/15 00:06:03;;;;;;;4.33;3.40;;;17.10;64.30;;;;;;5201563;28;20211;-42
2023/06/15 00:08:34;;;;;;;4.00;2.60;;;17.10;64.80;;;;;;5194544;28;20658;-44
2023/06/15 00:11:05;;;;;;;5.43;3.47;;;17.10;65.10;;;;;;5194245;28;20180;-44
2023/06/15 00:13:35;;;;;;;2.90;2.70;;;17.00;65.20;;;;;;5206475;28;20176;-46
2023/06/15 00:16:06;;;;;;;2.63;2.53;;;17.00;65.70;;;;;;5210643;28;20175;-44
2023/06/15 00:18:37;;;;;;;3.00;2.80;;;16.90;65.90;;;;;;5209653;28;20263;-44
2023/06/15 00:21:09;;;;;;;3.07;2.73;;;16.90;66.10;;;;;;5198381;28;20202;-44
2023/06/15 00:23:40;;;;;;;3.50;3.20;;;16.90;66.70;;;;;;5189976;28;20527;-43
2023/06/15 00:26:11;;;;;;;3.17;2.97;;;16.80;67.10;;;;;;5189836;28;20545;-43
2023/06/15 00:28:41;;;;;;;2.93;2.67;;;16.80;67.70;;;;;;5191164;28;20294;-43
2023/06/15 00:31:12;;;;;;;3.43;2.40;;;16.70;68.00;;;;;;5173944;28;20935;-44
2023/06/15 00:33:42;;;;;;;3.20;2.87;;;16.60;68.80;;;;;;5190000;28;20203;-44
2023/06/15 00:36:13;;;;;;;4.77;3.33;;;16.60;69.20;;;;;;5185230;28;20188;-43
2023/06/15 00:38:44;;;;;;;6.70;3.33;;;16.60;69.50;;;;;;5206994;28;20652;-43
2023/06/15 00:41:15;;;;;;;5.20;2.70;;;16.60;70.10;;;;;;5187034;28;20207;-43
2023/06/15 00:43:45;;;;;;;5.23;3.67;;;16.50;71.20;;;;;;5154706;28;20485;-44
2023/06/15 00:46:17;;;;;;;4.00;3.50;;;16.40;71.90;;;;;;5202405;28;20220;-43
2023/06/15 00:48:48;;;;;;;9.30;3.00;;;16.30;72.90;;;;;;5215493;28;20476;-43
2023/06/15 00:51:19;;;;;;;2.60;2.40;;;16.30;74.00;;;;;;5195805;28;20180;-43
2023/06/15 00:53:50;;;;;;;9.43;3.50;;;16.20;74.80;;;;;;5179383;28;20251;-44
2023/06/15 00:56:21;;;;;;;5.07;3.23;;;16.20;76.00;;;;;;5190189;28;20461;-42
2023/06/15 00:58:52;;;;;;;4.53;3.17;;;16.10;77.40;;;;;;5183358;28;20209;-44
2023/06/15 01:01:24;;;;;;;3.67;3.37;;;16.10;78.20;;;;;;5210085;28;20531;-47
2023/06/15 01:03:57;;;;;;;2.90;2.70;;;16.00;79.60;;;;;;5211431;28;20465;-43
2023/06/15 01:06:31;;;;;;;2.83;2.63;;;15.90;81.50;;;;;;5200907;28;20482;-43
2023/06/15 01:09:03;;;;;;;3.70;3.37;;;15.90;83.10;;;;;;5191668;28;20890;-43
2023/06/15 01:11:34;;;;;;;3.07;2.87;;;15.80;85.30;;;;;;5204872;28;20806;-43
2023/06/15 01:14:07;;;;;;;8.30;3.43;;;15.70;86.60;;;;;;5202422;28;20439;-44
2023/06/15 01:16:41;;;;;;;3.70;2.83;;;15.70;88.60;;;;;;5187346;28;20572;-44
2023/06/15 01:19:31;;;;;;;3.77;3.03;;;15.60;90.00;;;;;;5200334;28;20453;-44
2023/06/15 01:22:14;;;;;;;8.70;3.77;;;15.60;91.10;;;;;;5188751;28;20442;-43
2023/06/15 01:24:57;;;;;;;5.57;3.27;;;15.60;91.80;;;;;;5207650;28;20422;-43
2023/06/15 01:27:28;;;;;;;2.50;2.40;;;15.50;92.60;;;;;;5206189;28;20506;-43
2023/06/15 01:30:01;;;;;;;5.37;2.93;;;15.50;93.30;;;;;;5193551;28;20438;-43
2023/06/15 01:32:33;;;;;;;4.27;2.63;;;15.50;93.40;;;;;;5187134;28;20445;-43
2023/06/15 01:35:04;;;;;;;5.10;3.10;;;15.50;94.30;;;;;;5189968;28;20446;-43
2023/06/15 01:37:35;;;;;;;3.87;3.57;;;15.50;94.70;;;;;;5189998;28;20470;-43
2023/06/15 01:40:06;;;;;;;3.70;3.40;;;15.50;95.10;;;;;;5206809;28;20419;-43
2023/06/15 01:42:37;;;;;;;6.40;3.60;;;15.40;95.60;;;;;;5204836;28;20270;-43
2023/06/15 01:45:10;;;;;;;3.33;2.87;;;15.40;95.90;;;;;;5196546;28;20542;-44
2023/06/15 01:47:42;;;;;;;6.80;3.47;;;15.40;96.20;;;;;;5178574;28;20994;-43
2023/06/15 01:50:13;;;;;;;5.87;4.23;;;15.30;96.80;;;;;;5178525;28;20571;-44
2023/06/15 01:52:44;;;;;;;4.00;2.67;;;15.30;97.10;;;;;;5177299;28;20434;-42
2023/06/15 01:55:15;;;;;;;3.90;3.40;;;15.20;97.90;;;;;;5179402;28;20422;-42
2023/06/15 01:57:46;;;;;;;3.13;3.00;;;15.20;97.90;;;;;;5189265;28;20454;-43
2023/06/15 02:00:18;;;;;;;3.23;3.03;;;15.10;98.50;;;;;;5186362;28;20195;-43
2023/06/15 02:02:49;;;;;;;3.80;3.50;;;15.00;99.20;;;;;;5199720;28;20473;-43
2023/06/15 02:05:20;;;;;;;3.03;2.73;;;15.00;99.30;;;;;;5196880;28;20450;-43
2023/06/15 02:07:51;;;;;;;3.10;2.90;;;15.00;99.90;;;;;;5200959;28;20975;-43
2023/06/15 02:10:23;;;;;;;3.83;3.53;;;14.90;99.90;;;;;;5201380;28;20411;-43
2023/06/15 02:12:53;;;;;;;2.83;2.53;;;14.90;99.90;;;;;;5190343;28;20183;-44
2023/06/15 02:15:24;;;;;;;3.40;3.20;;;14.80;99.90;;;;;;5203619;28;21026;-44
2023/06/15 02:18:04;;;;;;;3.47;3.17;;;14.80;99.90;;;;;;5202248;28;20195;-43
2023/06/15 02:20:36;;;;;;;5.43;2.80;;;14.80;99.90;;;;;;5199975;28;20190;-43
2023/06/15 02:23:06;;;;;;;3.50;3.20;;;14.80;99.90;;;;;;5199432;28;20423;-44
2023/06/15 02:25:38;;;;;;;8.33;3.37;;;14.80;99.90;;;;;;5179111;28;20729;-44
2023/06/15 02:28:08;;;;;;;5.90;3.83;;;14.80;99.90;;;;;;5169067;28;20197;-43
2023/06/15 02:30:39;;;;;;;3.93;3.47;;;14.80;99.90;;;;;;5207154;28;20777;-45
2023/06/15 02:33:10;;;;;;;5.03;3.47;;;14.90;99.90;;;;;;5210618;28;20547;-44
2023/06/15 02:35:40;;;;;;;4.47;3.20;;;14.80;99.90;;;;;;5182453;28;20191;-45
2023/06/15 02:38:11;;;;;;;2.90;2.70;;;14.80;99.90;;;;;;5192678;28;20681;-47
2023/06/15 02:40:42;;;;;;;4.87;3.50;;;14.80;99.90;;;;;;5192186;28;20238;-45
2023/06/15 02:43:13;;;;;;;5.77;3.10;;;14.80;99.90;;;;;;5182401;28;20501;-44
2023/06/15 02:45:43;;;;;;;3.43;2.97;;;14.80;99.90;;;;;;5194612;28;20215;-43
2023/06/15 02:48:15;;;;;;;12.20;3.30;;;14.80;99.90;;;;;;5188278;28;20333;-44
2023/06/15 02:50:45;;;;;;;6.00;3.60;;;14.70;99.90;;;;;;5185407;28;20667;-44
2023/06/15 02:53:16;;;;;;;3.47;3.27;;;14.70;99.90;;;;;;5188388;28;20436;-43
2023/06/15 02:55:46;;;;;;;3.00;2.80;;;14.60;99.90;;;;;;5192379;28;20235;-45
2023/06/15 02:58:20;;;;;;;3.63;3.33;;;14.60;99.90;;;;;;5201312;28;20199;-44
2023/06/15 03:00:51;;;;;;;5.73;2.90;;;14.60;99.90;;;;;;5197994;28;20187;-44
2023/06/15 03:03:27;;;;;;;7.60;3.50;;;14.60;99.90;;;;;;5190017;28;20939;-44
2023/06/15 03:05:58;;;;;;;4.93;3.57;;;14.60;99.90;;;;;;5190029;28;20527;-46
2023/06/15 03:08:31;;;;;;;3.77;3.07;;;14.60;99.90;;;;;;5189225;28;20454;-45
2023/06/15 03:11:03;;;;;;;4.30;3.50;;;14.50;99.90;;;;;;5169605;28;20435;-44
2023/06/15 03:13:34;;;;;;;4.20;3.07;;;14.50;99.90;;;;;;5176626;28;20431;-45
2023/06/15 03:16:07;;;;;;;3.27;3.07;;;14.60;99.90;;;;;;5204778;28;20414;-44
2023/06/15 03:18:37;;;;;;;4.77;2.90;;;14.60;99.90;;;;;;5202381;28;20430;-42
2023/06/15 03:21:09;;;;;;;4.33;3.30;;;14.60;99.90;;;;;;5200281;28;20435;-44
2023/06/15 03:23:42;;;;;;;3.67;3.20;;;14.50;99.90;;;;;;5193238;28;20266;-43
2023/06/15 03:26:13;;;;;;;2.97;2.87;;;14.60;99.90;;;;;;5190863;28;20489;-44
2023/06/15 03:28:45;;;;;;;2.60;2.50;;;14.60;99.90;;;;;;5216870;28;20426;-44
2023/06/15 03:31:19;;;;;;;4.60;2.70;;;14.70;99.90;;;;;;5204155;28;20499;-44
2023/06/15 03:33:49;;;;;;;8.20;3.33;;;14.70;99.90;;;;;;5205095;28;20414;-43
2023/06/15 03:36:29;;;;;;;3.33;3.13;;;14.70;99.90;;;;;;5201187;28;20942;-43
2023/06/15 03:39:00;;;;;;;3.40;2.70;;;14.70;99.90;;;;;;5196314;28;20218;-44
2023/06/15 03:41:31;;;;;;;3.50;3.20;;;14.70;99.90;;;;;;5211184;28;20434;-43
2023/06/15 03:44:01;;;;;;;2.80;2.60;;;14.70;99.90;;;;;;5211248;28;20187;-43
2023/06/15 03:46:32;;;;;;;3.57;3.37;;;14.70;99.90;;;;;;5193968;28;20466;-43
2023/06/15 03:49:03;;;;;;;3.90;3.10;;;14.70;99.90;;;;;;5206169;28;20222;-44
2023/06/15 03:51:34;;;;;;;4.23;3.10;;;14.70;99.90;;;;;;5199873;28;20179;-44
2023/06/15 03:54:04;;;;;;;3.40;3.10;;;14.70;99.90;;;;;;5205358;28;20215;-45
2023/06/15 03:56:36;;;;;;;3.27;3.13;;;14.70;99.90;;;;;;5207012;28;20711;-43
2023/06/15 03:59:06;;;;;;;4.53;2.97;;;14.70;99.90;;;;;;5208269;28;20195;-42
2023/06/15 04:01:37;;;;;;;2.77;2.57;;;14.70;99.90;;;;;;5211654;28;20417;-43
2023/06/15 04:04:08;;;;;;;7.00;3.37;;;14.70;99.90;;;;;;5208512;28;20191;-45
2023/06/15 04:06:45;;;;;;;2.83;2.63;;;14.80;99.90;;;;;;5194513;28;20245;-44
2023/06/15 04:09:17;;;;;;;2.27;2.17;;;15.00;99.90;;;;;;5183864;28;20186;-44
2023/06/15 04:11:47;;;;;;;3.70;3.40;;;15.10;99.90;;;;;;5201855;28;20427;-43
2023/06/15 04:14:18;;;;;;;4.13;3.00;;;15.20;99.90;;;;;;5200332;28;20791;-44
2023/06/15 04:16:50;;;;;;;5.37;3.60;;;15.40;99.90;;;;;;5206118;28;20227;-44
2023/06/15 04:19:22;;;;;;;2.23;2.13;;;15.50;99.90;;;;;;5212616;28;20180;-49
2023/06/15 04:21:53;;;;;;;4.87;3.27;;;15.70;99.90;;;;;;5194632;28;20450;-44
2023/06/15 04:24:23;;;;;;;4.90;3.23;;;15.90;99.90;;;;;;5202691;28;20453;-43
2023/06/15 04:26:57;;;;;;;3.47;3.17;;;16.10;99.90;;;;;;5204943;28;20576;-44
2023/06/15 04:29:30;;;;;;;3.40;3.20;;;16.30;99.90;;;;;;5202871;28;20180;-44
2023/06/15 04:32:03;;;;;;;3.20;2.93;;;16.50;99.90;;;;;;5194390;28;21063;-43
2023/06/15 04:34:34;;;;;;;2.83;2.67;;;16.70;99.90;;;;;;5211436;28;20529;-44
2023/06/15 04:37:06;;;;;;;4.53;3.20;;;17.00;99.90;;;;;;5209609;28;20469;-45
2023/06/15 04:39:37;;;;;;;3.23;3.10;;;17.20;99.90;;;;;;5185642;28;20816;-44
2023/06/15 04:42:09;;;;;;;3.73;2.97;;;17.50;99.90;;;;;;5154399;28;20431;-45
2023/06/15 04:44:39;;;;;;;5.13;2.93;;;17.70;99.90;;;;;;5186038;28;20176;-44
2023/06/15 04:47:10;;;;;;;3.70;3.20;;;17.60;99.60;;;;;;5204598;28;20999;-43
2023/06/15 04:49:41;;;;;;;4.83;3.33;;;17.40;99.70;;;;;;5183247;28;20190;-44
2023/06/15 04:52:12;;;;;;;6.67;3.37;;;17.50;99.90;;;;;;5203692;28;20537;-44
2023/06/15 04:54:43;;;;;;;2.70;2.60;;;17.50;99.60;;;;;;5190338;28;20437;-43
2023/06/15 04:57:14;;;;;;;3.07;2.87;;;17.90;99.40;;;;;;5186500;28;20211;-44
2023/06/15 04:59:45;;;;;;;3.77;3.20;;;18.40;97.90;;;;;;5200780;28;20244;-44
2023/06/15 05:02:16;;;;;;;4.83;3.30;;;19.40;97.20;;;;;;5171433;28;20191;-43
2023/06/15 05:04:46;;;;;;;2.80;2.60;;;20.90;90.80;;;;;;5201483;28;20414;-42
2023/06/15 05:07:17;;;;;;;2.70;2.30;;;22.40;82.80;;;;;;5189581;28;20214;-43
2023/06/15 05:09:48;;;;;;;3.63;2.77;;;24.20;67.70;;;;;;5205577;28;20191;-43
2023/06/15 05:12:19;;;;;;;3.33;2.87;;;25.00;59.50;;;;;;5199870;28;20172;-43
2023/06/15 05:14:50;;;;;;;3.13;2.87;;;25.20;56.70;;;;;;5198990;28;20238;-42
2023/06/15 05:17:21;;;;;;;2.00;1.90;;;25.30;55.10;;;;;;5199641;28;20200;-44
2023/06/15 05:19:52;;;;;;;3.30;3.00;;;25.90;53.80;;;;;;5189820;28;20426;-44
2023/06/15 05:22:23;;;;;;;4.87;2.70;;;26.40;50.10;;;;;;5200403;28;20662;-44
2023/06/15 05:24:53;;;;;;;3.43;3.13;;;25.50;51.20;;;;;;5191206;28;20211;-44
2023/06/15 05:27:24;;;;;;;2.23;2.13;;;24.80;51.80;;;;;;5191417;28;20287;-43
2023/06/15 05:29:55;;;;;;;3.37;3.07;;;23.80;53.80;;;;;;5181144;28;20188;-44
2023/06/15 05:32:26;;;;;;;5.10;3.13;;;23.20;54.90;;;;;;5180552;28;20173;-43
2023/06/15 05:34:56;;;;;;;2.77;2.57;;;23.40;55.80;;;;;;5188377;28;20176;-49
2023/06/15 05:37:29;;;;;;;3.60;3.30;;;23.40;55.40;;;;;;5209472;28;20248;-41
2023/06/15 05:39:59;;;;;;;3.00;2.90;;;23.20;55.60;;;;;;5159293;28;20200;-43
2023/06/15 05:42:30;;;;;;;3.50;2.83;;;22.90;56.20;;;;;;5192109;28;20442;-42
2023/06/15 05:45:01;;;;;;;4.00;2.83;;;22.80;56.70;;;;;;5193406;28;20190;-42
2023/06/15 05:47:32;;;;;;;5.20;2.67;;;22.80;56.30;;;;;;5197073;28;20215;-42
2023/06/15 05:50:03;;;;;;;3.27;2.87;;;22.90;57.50;;;;;;5203372;28;20179;-43
2023/06/15 05:52:34;;;;;;;15.13;3.00;;;22.90;57.00;;;;;;5205244;28;21444;-43
2023/06/15 05:55:05;;;;;;;2.60;2.50;;;23.20;56.10;;;;;;5192346;28;20441;-43
2023/06/15 05:57:36;;;;;;;2.40;2.20;;;22.90;56.60;;;;;;5207000;28;20204;-43
2023/06/15 06:00:07;;;;;;;4.50;2.90;;;23.10;56.20;;;;;;5184034;28;20427;-41
2023/06/15 06:02:40;;;;;;;3.03;2.83;;;22.50;56.70;;;;;;5192310;28;20176;-42
2023/06/15 06:05:11;;;;;;;3.40;3.10;;;22.00;57.60;;;;;;5205476;28;20459;-43
2023/06/15 06:07:45;;;;;;;5.67;3.10;;;21.80;58.20;;;;;;5201266;28;20506;-42
2023/06/15 06:10:19;;;;;;;3.27;3.07;;;21.40;59.10;;;;;;5203889;28;20195;-42
2023/06/15 06:12:50;;;;;;;4.87;2.60;;;20.90;60.60;;;;;;5202596;28;20438;-42
2023/06/15 06:15:20;;;;;;;2.67;2.57;;;20.50;62.00;;;;;;5200130;28;20427;-42
2023/06/15 06:17:51;;;;;;;7.10;3.77;;;20.10;63.20;;;;;;5174731;28;20253;-43
2023/06/15 06:20:22;;;;;;;3.70;3.20;;;20.10;64.30;;;;;;5205755;28;20275;-41
2023/06/15 06:22:52;;;;;;;3.53;3.23;;;20.00;64.80;;;;;;5195706;28;20179;-43
2023/06/15 06:25:23;;;;;;;4.90;3.40;;;19.90;65.50;;;;;;5208522;28;20497;-42
2023/06/15 06:27:54;;;;;;;4.60;3.37;;;19.70;66.50;;;;;;5200743;28;20215;-42
2023/06/15 06:30:24;;;;;;;3.00;2.80;;;19.80;66.70;;;;;;5203724;28;20192;-42
2023/06/15 06:32:55;;;;;;;3.97;3.40;;;19.80;67.20;;;;;;5202526;28;20169;-43
2023/06/15 06:35:26;;;;;;;3.87;3.30;;;19.90;67.00;;;;;;5204709;28;20182;-42
2023/06/15 06:37:56;;;;;;;3.40;3.10;;;20.50;66.80;;;;;;5176108;28;20238;-42
2023/06/15 06:40:27;;;;;;;3.33;3.03;;;21.30;65.30;;;;;;5199978;28;20184;-44
2023/06/15 06:42:58;;;;;;;2.83;2.73;;;22.10;62.40;;;;;;5189066;28;20541;-42
2023/06/15 06:45:28;;;;;;;3.47;3.27;;;23.20;58.80;;;;;;5184779;28;20189;-46
2023/06/15 06:47:59;;;;;;;3.10;2.80;;;24.60;55.80;;;;;;5189163;28;20199;-42
2023/06/15 06:50:30;;;;;;;2.60;2.50;;;26.40;52.60;;;;;;5204462;28;20176;-43
2023/06/15 06:53:01;;;;;;;7.53;2.93;;;27.70;47.10;;;;;;5192687;28;20699;-42
2023/06/15 06:55:31;;;;;;;4.73;2.20;;;28.90;45.80;;;;;;5215042;28;20718;-44
2023/06/15 06:58:02;;;;;;;2.60;2.33;;;29.50;43.50;;;;;;5209415;28;20252;-43
2023/06/15 07:00:33;;;;;;;2.57;2.43;;;30.70;41.20;;;;;;5200725;28;20206;-42
2023/06/15 07:03:04;;;;;;;6.83;3.00;;;32.00;39.10;;;;;;5193760;28;20199;-42
2023/06/15 07:05:34;;;;;;;5.20;2.55;;;32.50;37.00;;;;;;5207295;28;20187;-43
2023/06/15 07:08:05;;;;;;;4.40;2.77;;;32.80;36.00;;;;;;5196571;28;20208;-43
2023/06/15 07:10:36;;;;;;;9.10;2.57;;;33.30;35.30;;;;;;5202643;28;20179;-46
2023/06/15 07:13:07;;;;;;;4.23;2.70;;;33.50;34.30;;;;;;5206422;28;20236;-44
2023/06/15 07:15:37;;;;;;;9.80;2.33;;;33.70;33.50;;;;;;5186868;28;20602;-44
2023/06/15 07:18:08;;;;;;;29.77;3.77;;;32.80;33.40;;;;;;5212584;28;20199;-44
2023/06/15 07:20:39;;;;;;;2.67;2.47;;;33.10;33.90;;;;;;5206064;28;20303;-44
2023/06/15 07:23:09;;;;;;;4.20;2.77;;;32.30;34.10;;;;;;5193781;28;20194;-45
2023/06/15 07:25:40;;;;;;;2.93;2.73;;;31.50;35.40;;;;;;5203939;28;20179;-45
2023/06/15 07:28:11;;;;;;;3.13;2.53;;;29.90;37.30;;;;;;5214615;28;20289;-42
2023/06/15 07:30:44;;;;;;;2.70;2.53;;;28.00;39.80;;;;;;5212027;28;20184;-42
2023/06/15 07:33:15;;;;;;;5.90;2.83;;;26.10;43.40;;;;;;5209543;28;20547;-43
2023/06/15 07:35:47;;;;;;;3.97;3.07;;;24.90;45.80;;;;;;5192477;28;20475;-42
2023/06/15 07:38:17;;;;;;;3.03;2.80;;;23.90;48.00;;;;;;5209112;28;20457;-42
2023/06/15 07:40:48;;;;;;;7.03;3.07;;;23.20;49.60;;;;;;5198006;28;20432;-43
2023/06/15 07:43:20;;;;;;;2.83;2.67;;;22.70;50.90;;;;;;5186902;28;20183;-42
2023/06/15 07:45:50;;;;;;;7.70;3.50;;;23.00;51.20;;;;;;5214886;28;20553;-41
2023/06/15 07:48:21;;;;;;;4.77;3.07;;;23.60;50.60;;;;;;5211891;28;20449;-41
2023/06/15 07:50:52;;;;;;;3.13;2.83;;;24.50;49.40;;;;;;5193675;28;20231;-42
2023/06/15 07:53:22;;;;;;;7.33;3.10;;;25.30;48.10;;;;;;5201796;28;20658;-43
2023/06/15 07:55:53;;;;;;;4.00;3.37;;;26.10;46.50;;;;;;5202938;28;20607;-42
2023/06/15 07:58:24;;;;;;;2.97;2.77;;;26.80;44.80;;;;;;5184532;28;20215;-42
2023/06/15 08:00:55;;;;;;;2.77;2.57;;;28.80;42.20;;;;;;5182271;28;20429;-42
2023/06/15 08:03:25;;;;;;;5.60;3.60;;;30.60;40.10;;;;;;5213132;28;20179;-42
2023/06/15 08:05:56;;;;;;;7.80;3.20;;;32.10;36.80;;;;;;5209449;28;20204;-41
2023/06/15 08:08:27;;;;;;;12.40;3.37;;;32.10;35.90;;;;;;5213389;28;20279;-42
2023/06/15 08:10:57;;;;;;;9.90;3.00;;;31.80;36.30;;;;;;5184594;28;20186;-42
2023/06/15 08:13:29;;;;;;;6.93;3.73;;;30.20;37.80;;;;;;5208294;28;20250;-42
2023/06/15 08:16:00;;;;;;;5.30;2.83;;;28.40;40.60;;;;;;5204534;28;20211;-43
2023/06/15 08:18:31;;;;;;;5.37;2.80;;;27.60;43.40;;;;;;5192491;28;20524;-43
2023/06/15 08:21:01;;;;;;;4.33;3.90;;;27.60;43.50;;;;;;5196208;28;20195;-42
2023/06/15 08:23:32;;;;;;;4.20;3.53;;;28.70;41.50;;;;;;5208904;28;20188;-44
2023/06/15 08:26:03;;;;;;;3.23;3.03;;;30.30;39.90;;;;;;5209154;28;20204;-43
2023/06/15 08:28:33;;;;;;;3.20;2.93;;;31.80;37.00;;;;;;5199593;28;20215;-44
2023/06/15 08:31:04;;;;;;;4.50;3.87;;;32.30;35.10;;;;;;5211072;28;20266;-44
2023/06/15 08:33:35;;;;;;;3.47;3.10;;;31.60;36.10;;;;;;5193503;28;20218;-52
2023/06/15 08:36:06;;;;;;;3.80;3.20;;;31.20;37.00;;;;;;5188642;28;20176;-44
2023/06/15 08:38:37;;;;;;;3.87;3.57;;;31.10;36.30;;;;;;5185864;28;20447;-44
2023/06/15 08:41:08;;;;;;;3.63;3.30;;;31.00;37.20;;;;;;5187531;28;20338;-43
2023/06/15 08:43:42;;;;;;;3.67;3.23;;;31.30;36.50;;;;;;5205790;28;20183;-43
2023/06/15 08:46:12;;;;;;;3.03;2.83;;;30.00;38.10;;;;;;5202897;28;20333;-44
2023/06/15 08:48:46;;;;;;;4.70;3.03;;;29.20;40.00;;;;;;5192136;28;20525;-44
2023/06/15 08:51:17;;;;;;;4.83;3.10;;;28.30;41.00;;;;;;5187570;28;20181;-43
2023/06/15 08:53:48;;;;;;;4.23;3.87;;;27.40;42.50;;;;;;5163750;28;20423;-43
2023/06/15 08:56:19;;;;;;;2.97;2.87;;;26.80;43.60;;;;;;5200054;28;20437;-45
2023/06/15 08:58:50;;;;;;;3.83;2.77;;;25.90;45.80;;;;;;5191488;28;20816;-43
2023/06/15 09:01:22;;;;;;;5.70;3.40;;;25.50;46.60;;;;;;5172420;28;20525;-45
2023/06/15 09:03:55;;;;;;;5.33;3.37;;;25.40;47.80;;;;;;5191944;28;20312;-42
2023/06/15 09:06:25;;;;;;;4.37;3.97;;;25.40;47.50;;;;;;5188925;28;20552;-43
2023/06/15 09:08:56;;;;;;;8.00;3.17;;;25.00;47.60;;;;;;5205441;28;20514;-42
2023/06/15 09:11:27;;;;;;;4.80;3.93;;;25.20;47.80;;;;;;5191435;28;20543;-42
2023/06/15 09:13:57;;;;;;;5.27;3.97;;;25.60;47.30;;;;;;5193015;28;20207;-42
2023/06/15 09:16:30;;;;;;;4.33;3.13;;;26.40;45.80;;;;;;5192596;28;20211;-42
2023/06/15 09:19:01;;;;;;;3.50;3.30;;;26.70;44.20;;;;;;5192361;28;20730;-42
2023/06/15 09:21:32;;;;;;;8.50;3.50;;;26.60;44.50;;;;;;5191942;28;20434;-42
2023/06/15 09:24:04;;;;;;;3.33;3.00;;;26.30;45.60;;;;;;5184075;28;20184;-42
2023/06/15 09:26:39;;;;;;;3.33;3.13;;;26.00;45.90;;;;;;5186687;28;20239;-42
2023/06/15 09:29:11;;;;;;;6.83;2.90;;;25.60;44.10;;;;;;5175604;28;20476;-43
2023/06/15 09:31:42;;;;;;;3.70;3.40;;;25.00;44.40;;;;;;5191978;28;20469;-43
2023/06/15 09:34:14;;;;;;;13.07;3.93;;;24.40;44.60;;;;;;5186872;28;20491;-42
2023/06/15 09:36:49;;;;;;;4.57;3.93;;;23.80;45.20;;;;;;5197258;28;20298;-42
2023/06/15 09:39:23;;;;;;;4.70;3.70;;;23.50;45.50;;;;;;5184735;28;20537;-44
2023/06/15 09:41:58;;;;;;;9.57;3.87;;;23.40;46.40;;;;;;5185246;28;20442;-42
2023/06/15 09:44:29;;;;;;;12.13;4.43;;;23.20;46.80;;;;;;5203508;28;20927;-43
2023/06/15 09:47:01;;;;;;;6.50;4.17;;;23.20;46.70;;;;;;5174710;28;20467;-43
2023/06/15 09:49:32;;;;;;;6.40;3.50;;;23.10;47.20;;;;;;5206945;28;20171;-42
2023/06/15 09:52:04;;;;;;;6.40;3.70;;;22.90;47.90;;;;;;5207221;28;20522;-42
2023/06/15 09:54:35;;;;;;;4.03;3.30;;;23.00;48.30;;;;;;5198194;28;20275;-43
2023/06/15 09:57:08;;;;;;;4.60;4.10;;;22.90;48.40;;;;;;5182271;28;20489;-42
2023/06/15 09:59:38;;;;;;;6.13;4.00;;;22.80;49.10;;;;;;5206147;28;20414;-42
2023/06/15 10:02:14;;;;;;;5.47;4.30;;;23.00;49.30;;;;;;5190852;28;20411;-42
2023/06/15 10:04:47;;;;;;;7.50;4.03;;;22.80;49.50;;;;;;5196572;28;20179;-43
2023/06/15 10:07:20;;;;;;;4.30;3.53;;;22.60;50.10;;;;;;5207985;28;20474;-42
2023/06/15 10:09:52;;;;;;;3.57;3.17;;;22.40;50.90;;;;;;5202076;28;20984;-41
2023/06/15 10:12:26;;;;;;;4.97;3.47;;;22.40;51.00;;;;;;5186364;28;20431;-43
2023/06/15 10:15:10;;;;;;;4.20;3.60;;;22.40;51.30;;;;;;5204882;28;20433;-42
2023/06/15 10:17:46;;;;;;;6.20;3.93;;;22.50;51.30;;;;;;5188910;28;20450;-42
2023/06/15 10:20:18;;;;;;;8.90;4.43;;;22.60;51.30;;;;;;5183080;28;20545;-43
2023/06/15 10:23:04;;;;;;;5.07;3.60;;;22.70;51.50;;;;;;5199277;28;20849;-42
2023/06/15 10:25:38;;;;;;;5.43;3.90;;;22.60;50.70;;;;;;5209899;28;20522;-43
2023/06/15 10:28:12;;;;;;;6.93;4.07;;;22.70;50.60;;;;;;5208983;28;20969;-42
2023/06/15 10:31:01;;;;;;;2.60;2.50;;;22.80;50.50;;;;;;5203979;28;20846;-42
2023/06/15 10:33:38;;;;;;;3.93;3.63;;;22.70;48.30;;;;;;5181318;28;20467;-44
2023/06/15 10:36:19;;;;;;;3.30;3.00;;;22.60;47.50;;;;;;5202464;28;20575;-41
2023/06/15 10:39:05;;;;;;;3.20;3.00;;;22.40;47.50;;;;;;5203246;28;20466;-43
2023/06/15 10:41:36;;;;;;;9.33;4.10;;;22.30;47.40;;;;;;5199543;28;20410;-42
2023/06/15 10:44:07;;;;;;;6.37;3.77;;;22.20;48.50;;;;;;5208638;28;20424;-43
2023/06/15 10:46:38;;;;;;;2.83;2.47;;;22.20;47.60;;;;;;5191485;28;20847;-42
2023/06/15 10:49:11;;;;;;;3.00;2.83;;;22.00;47.10;;;;;;5202880;28;20186;-42
2023/06/15 10:51:50;;;;;;;3.00;2.80;;;21.90;47.00;;;;;;5189151;28;20243;-43
2023/06/15 10:54:23;;;;;;;8.83;3.67;;;21.80;47.70;;;;;;5193696;28;20435;-43
2023/06/15 10:56:58;;;;;;;7.83;2.90;;;21.80;48.20;;;;;;5188798;28;20823;-43
2023/06/15 10:59:54;;;;;;;7.73;3.57;;;21.80;48.60;;;;;;5191148;28;20418;-42
2023/06/15 11:02:33;;;;;;;3.07;2.50;;;21.90;48.90;;;;;;5196324;28;20822;-43
2023/06/15 11:05:12;;;;;;;2.60;2.40;;;22.00;48.40;;;;;;5208477;28;20414;-43
2023/06/15 11:07:47;;;;;;;3.87;2.87;;;22.10;48.30;;;;;;5201062;28;20552;-42
2023/06/15 11:10:28;;;;;;;4.17;2.87;;;22.20;47.90;;;;;;5198610;28;20536;-42
2023/06/15 11:13:04;;;;;;;4.30;3.50;;;22.10;46.90;;;;;;5197385;28;20450;-43
2023/06/15 11:15:36;;;;;;;2.73;2.50;;;22.10;47.00;;;;;;5179646;28;20464;-43
2023/06/15 11:18:14;;;;;;;4.60;2.80;;;22.00;46.80;;;;;;5172700;28;20470;-43
2023/06/15 11:20:51;;;;;;;2.77;2.57;;;22.10;46.50;;;;;;5200151;28;20418;-42
2023/06/15 11:23:24;;;;;;;4.47;3.00;;;22.20;46.60;;;;;;5206877;28;20497;-42
2023/06/15 11:25:55;;;;;;;4.37;2.70;;;22.40;46.50;;;;;;5200596;28;20492;-42
2023/06/15 11:28:31;;;;;;;5.30;3.33;;;22.60;46.10;;;;;;5207870;28;20922;-43
2023/06/15 11:31:03;;;;;;;2.97;2.70;;;23.00;45.90;;;;;;5202885;28;20438;-43
2023/06/15 11:33:36;;;;;;;2.63;2.43;;;23.20;45.80;;;;;;5202177;28;21001;-42
2023/06/15 11:36:09;;;;;;;2.50;2.33;;;23.50;46.00;;;;;;5204796;28;20485;-43
2023/06/15 11:38:40;;;;;;;3.70;2.90;;;24.00;45.40;;;;;;5195354;28;20469;-42
2023/06/15 11:41:11;;;;;;;6.77;3.30;;;24.10;44.90;;;;;;5196137;28;20453;-43
2023/06/15 11:43:49;;;;;;;3.73;2.77;;;24.20;45.10;;;;;;5207355;28;20176;-42
2023/06/15 11:46:21;;;;;;;2.90;2.73;;;24.30;45.20;;;;;;5184105;28;20530;-42
2023/06/15 11:48:57;;;;;;;4.27;3.13;;;24.20;45.10;;;;;;5206304;28;20442;-42
2023/06/15 11:51:27;;;;;;;10.13;4.10;;;23.90;45.60;;;;;;5213556;28;20445;-42
2023/06/15 11:53:58;;;;;;;6.63;2.90;;;23.40;46.60;;;;;;5215205;28;20442;-42
2023/06/15 11:56:29;;;;;;;4.83;4.23;;;22.90;47.90;;;;;;5213041;28;20207;-42
2023/06/15 11:59:01;;;;;;;10.03;5.80;;;22.70;48.20;;;;;;5210523;28;20192;-42
2023/06/15 12:01:31;;;;;;;8.83;4.60;;;22.80;48.50;;;;;;5215848;28;20464;-43
2023/06/15 12:04:10;;;;;;;6.33;2.90;;;22.90;47.70;;;;;;5199683;28;20442;-42
2023/06/15 12:06:42;;;;;;;5.83;2.80;;;22.90;48.20;;;;;;5210959;28;20278;-42
2023/06/15 12:09:16;;;;;;;5.20;4.00;;;22.80;47.80;;;;;;5195392;28;20868;-41
2023/06/15 12:11:46;;;;;;;3.13;2.47;;;22.90;48.20;;;;;;5195873;28;20426;-42
2023/06/15 12:14:20;;;;;;;3.23;2.93;;;23.10;46.60;;;;;;5206077;28;20450;-42
2023/06/15 12:16:52;;;;;;;7.20;3.30;;;23.70;46.30;;;;;;5204122;28;20207;-43
2023/06/15 12:19:23;;;;;;;3.60;2.60;;;24.20;45.90;;;;;;5185979;28;20437;-43
2023/06/15 12:21:59;;;;;;;5.77;3.47;;;24.20;43.80;;;;;;5202533;28;20529;-42
2023/06/15 12:24:38;;;;;;;2.87;2.67;;;23.80;44.60;;;;;;5204212;28;20636;-42
2023/06/15 12:27:16;;;;;;;4.10;3.20;;;23.50;45.40;;;;;;5203006;28;20564;-42
2023/06/15 12:29:47;;;;;;;6.73;2.73;;;23.40;45.60;;;;;;5198791;28;20505;-43
2023/06/15 12:32:24;;;;;;;2.80;2.60;;;23.20;45.50;;;;;;5208117;28;20496;-42
2023/06/15 12:34:55;;;;;;;2.97;2.70;;;23.20;45.00;;;;;;5201512;28;20195;-43
2023/06/15 12:37:28;;;;;;;8.23;3.20;;;23.30;44.70;;;;;;5197477;28;20470;-43
2023/06/15 12:39:59;;;;;;;3.30;2.37;;;23.20;44.20;;;;;;5190302;28;20181;-42
2023/06/15 12:42:32;;;;;;;2.83;2.63;;;23.10;43.70;;;;;;5187563;28;20462;-43
2023/06/15 12:45:03;;;;;;;20.00;13.07;;;23.20;44.00;;;;;;5201536;28;20183;-44
2023/06/15 12:47:34;;;;;;;5.63;5.13;;;23.40;43.80;;;;;;5193648;28;20476;-43
2023/06/15 12:50:06;;;;;;;3.87;3.10;;;23.20;44.20;;;;;;5184671;28;20435;-43
2023/06/15 12:52:36;;;;;;;2.77;2.57;;;23.10;44.80;;;;;;5180400;28;20176;-42
2023/06/15 12:55:07;;;;;;;3.60;2.80;;;23.00;45.30;;;;;;5196816;28;20516;-43
2023/06/15 12:57:38;;;;;;;2.70;2.50;;;22.90;45.70;;;;;;5192414;28;20203;-43
2023/06/15 13:00:09;;;;;;;5.47;3.10;;;22.90;46.00;;;;;;5190816;28;20850;-42
2023/06/15 13:02:40;;;;;;;3.23;3.03;;;22.80;46.20;;;;;;5208572;28;20350;-42
2023/06/15 13:05:10;;;;;;;3.37;3.10;;;22.60;46.70;;;;;;5181961;28;20477;-42
2023/06/15 13:07:41;;;;;;;7.33;2.83;;;22.40;47.10;;;;;;5188378;28;20310;-43
2023/06/15 13:10:13;;;;;;;4.20;2.83;;;22.50;47.40;;;;;;5203853;28;20633;-42